Date,TemperatureHighF,TemperatureAvgF,TemperatureLowF,DewpointHighF,DewpointAvgF,DewpointLowF,HumidityHigh,HumidityAvg,HumidityLow,PressureMaxIn,PressureMinIn,WindSpeedMaxMPH,WindSpeedAvgMPH,GustSpeedMaxMPH,PrecipitationSumIn
2014-1-1,31.0,20.9,-1.0,23.0,15.9,-6.0,94,82,56,0.00,40.00,9,4,12,0.19
2014-1-2,24.0,12.1,5.0,15.0,6.9,1.0,87,80,61,0.00,40.00,4,2,10,0.01
2014-1-3,35.0,23.6,8.0,26.0,16.5,4.0,91,75,46,0.00,40.00,24,11,39,0.01
2014-1-8,33.0,18.9,10.0,23.0,14.3,6.0,91,82,58,0.00,40.00,14,3,21,0.03
2014-1-9,27.0,23.4,19.0,26.0,21.3,15.0,94,91,85,0.00,40.00,16,11,25,0.03
2014-1-10,32.0,25.0,16.0,23.0,19.2,12.0,91,79,60,0.00,40.00,22,14,38,0.02
2014-1-11,34.0,31.0,27.0,32.0,29.0,22.0,98,92,75,0.00,40.00,29,18,39,0.08
2014-1-12,27.0,23.2,21.0,24.0,17.9,11.0,91,80,59,0.00,40.00,28,14,40,0.01
2014-1-13,33.0,28.8,22.0,25.0,21.4,15.0,93,74,52,0.00,40.00,25,15,38,0.01
2014-1-14,38.0,29.5,21.0,20.0,16.9,10.0,80,60,41,0.00,40.00,12,7,25,0.01
2014-1-15,33.0,19.9,10.0,17.0,12.7,6.0,90,75,51,0.00,40.00,9,6,19,0.00
2014-1-16,31.0,13.8,2.0,14.0,6.8,-2.0,87,74,48,0.00,40.00,8,4,16,0.00
2014-1-17,28.0,11.9,0.0,13.0,5.5,-4.0,87,76,52,0.00,40.00,6,3,12,0.00
2014-1-18,31.0,10.4,0.0,12.0,3.5,-8.0,86,75,44,0.00,40.00,7,3,10,0.00
2014-1-19,28.0,10.5,-4.0,12.0,3.4,-9.0,84,73,51,0.00,40.00,7,3,11,0.00
2014-1-20,34.0,14.3,3.0,12.0,6.2,-1.0,87,72,37,0.00,40.00,6,3,12,0.00
2014-1-21,30.0,6.7,-6.0,8.0,-1.1,-12.0,84,71,38,0.00,40.00,6,2,9,0.00
2014-2-2,21.0,6.4,-1.0,11.0,0.7,-7.0,87,77,65,0.00,40.00,9,3,11,0.09
2014-2-3,20.0,13.4,7.0,16.0,9.2,3.0,89,83,67,0.00,40.00,16,8,21,0.01
2014-2-4,16.0,4.5,-10.0,12.0,-1.0,-17.0,86,77,70,0.00,40.00,12,6,17,0.02
2014-2-5,8.0,-3.4,-13.0,0.0,-10.2,-20.0,78,72,66,0.00,40.00,6,2,7,0.02
2014-2-6,13.0,-1.0,-8.0,3.0,-7.5,-15.0,81,74,62,0.00,40.00,6,2,9,0.05
2014-2-7,21.0,14.0,5.0,17.0,10.7,1.0,91,86,82,0.00,40.00,18,8,26,0.01
2014-2-8,31.0,26.7,19.0,29.0,25.1,17.0,98,93,89,0.00,40.00,20,16,38,0.04
2014-2-9,36.0,30.5,27.0,31.0,27.5,20.0,98,89,76,0.00,40.00,23,12,38,0.14
2014-2-10,35.0,25.4,14.0,27.0,19.7,10.0,91,79,57,0.00,40.00,8,4,15,0.12
2014-2-11,31.0,24.8,13.0,26.0,20.7,9.0,91,84,74,0.00,40.00,20,8,32,0.08
2014-2-12,32.0,28.7,25.0,32.0,27.0,19.0,99,93,76,0.00,40.00,22,15,33,0.01
2014-2-13,37.0,33.7,31.0,32.0,26.5,12.0,99,77,42,0.00,40.00,24,15,46,0.32
2014-2-14,33.0,26.6,19.0,32.0,22.3,8.0,99,84,48,0.00,40.00,20,11,37,0.01
2014-2-15,37.0,34.6,32.0,34.0,32.4,31.0,99,91,80,0.00,40.00,16,10,37,0.72
2014-2-16,37.0,31.0,20.0,32.0,25.2,12.0,95,80,46,0.00,40.00,21,14,38,0.05
2014-2-17,38.0,27.9,19.0,21.0,14.7,10.0,73,58,39,0.00,40.00,24,18,47,0.01
2014-2-18,32.0,28.6,23.0,25.0,19.2,15.0,89,68,51,0.00,40.00,27,17,70,0.02
2014-2-19,31.0,24.8,18.0,27.0,14.1,-2.0,96,66,39,0.00,40.00,24,12,37,0.02
2014-2-20,23.0,18.5,11.0,20.0,7.7,-5.0,93,64,39,0.00,40.00,24,14,39,0.02
2014-2-21,27.0,24.2,21.0,21.0,18.2,9.0,93,79,53,0.00,40.00,21,15,37,0.00
2014-2-22,27.0,22.2,19.0,20.0,16.4,6.0,92,79,43,0.00,40.00,10,5,23,0.06
2014-2-23,36.0,29.5,19.0,24.0,20.8,17.0,91,71,50,0.00,40.00,14,9,36,0.18
2014-2-24,45.0,36.7,31.0,25.0,22.5,20.0,75,57,39,0.00,40.00,19,12,31,0.02
2014-3-9,44.0,31.6,16.0,29.0,22.1,13.0,88,70,45,0.00,40.00,16,9,30,0.00
2014-3-10,44.0,35.5,29.0,32.0,30.0,26.0,97,82,49,0.00,40.00,21,16,30,0.08
2014-3-11,38.0,28.2,18.0,27.0,20.1,13.0,97,74,43,0.00,40.00,13,6,18,0.06
2014-3-12,41.0,20.9,1.0,21.0,10.2,-4.0,87,66,39,0.00,40.00,7,4,14,0.02
2014-3-13,44.0,22.5,7.0,21.0,12.1,3.0,87,67,38,0.00,40.00,6,4,15,0.00
2014-3-14,41.0,25.8,8.0,31.0,17.2,5.0,99,72,43,0.00,40.00,19,7,26,0.00
2014-3-15,40.0,30.1,23.0,29.0,17.5,9.0,97,61,41,0.00,40.00,11,6,32,0.07
2014-3-17,42.0,33.6,24.0,25.0,21.3,16.0,94,64,35,0.00,40.00,28,17,51,0.02
2014-3-18,30.0,22.1,15.0,25.0,18.8,12.0,91,86,76,0.00,40.00,10,4,12,0.06
2014-3-19,34.0,18.5,3.0,19.0,10.2,-2.0,88,71,42,0.00,40.00,16,6,26,0.04
2014-3-20,41.0,33.8,27.0,19.0,10.3,-99.9,51,40,29,0.00,40.00,24,17,47,0.00
2014-3-21,38.0,22.8,6.0,14.0,2.5,-99.9,56,43,33,0.00,40.00,11,6,17,0.00
2014-3-22,39.0,23.7,9.0,14.0,6.2,-1.0,66,48,24,0.00,40.00,7,4,11,0.00
2014-3-23,42.0,23.9,6.0,14.0,5.5,-1.0,74,50,22,0.00,40.00,14,6,33,0.00
2014-3-24,43.0,36.4,23.0,22.0,16.1,9.0,61,44,32,0.00,40.00,11,5,26,0.00
2014-3-25,47.0,30.7,15.0,25.0,16.4,9.0,78,57,37,0.00,40.00,16,6,21,0.00
2014-3-26,46.0,34.3,26.0,29.0,21.3,15.0,86,61,35,0.00,40.00,17,8,24,0.00
2014-3-27,34.0,28.4,21.0,28.0,24.2,19.0,96,85,56,0.00,40.00,19,9,31,0.04
2014-3-28,37.0,30.2,25.0,26.0,21.0,17.0,86,70,45,0.00,40.00,19,13,28,0.04
2014-3-29,38.0,33.8,31.0,33.0,28.4,21.0,93,81,66,0.00,40.00,17,15,26,0.06
2014-4-20,56.0,40.2,29.0,31.0,24.5,21.0,83,57,26,0.00,40.00,14,5,25,0.00
2014-4-21,57.0,38.5,23.0,27.0,20.9,14.0,88,55,18,0.00,40.00,9,3,17,0.00
2014-4-22,49.0,40.6,35.0,38.0,32.6,23.0,93,74,50,0.00,40.00,18,8,34,0.05
2014-4-23,39.0,31.7,28.0,31.0,23.4,12.0,98,74,33,0.00,40.00,22,14,29,0.01
2014-4-24,38.0,34.3,30.0,32.0,25.5,20.0,90,71,58,0.00,40.00,24,14,31,0.00
2014-4-25,45.0,35.6,33.0,36.0,33.4,31.0,100,92,65,0.00,40.00,13,7,23,0.38
2014-4-26,44.0,35.4,32.0,35.0,33.4,32.0,100,93,70,0.00,40.00,9,5,12,0.66
2014-5-26,74.0,56.1,36.0,41.0,35.2,27.0,96,54,19,0.00,40.00,11,5,29,0.00
2014-5-27,77.0,58.8,37.0,39.0,32.2,21.0,83,43,13,0.00,40.00,18,7,32,0.00
2014-5-28,77.0,58.5,38.0,39.0,33.7,30.0,81,45,19,0.00,40.00,20,7,36,0.01
2014-5-29,67.0,54.9,44.0,39.0,31.7,22.0,81,46,18,0.00,40.00,8,5,19,0.01
2014-5-30,74.0,52.2,30.0,36.0,31.0,23.0,88,51,15,0.00,40.00,15,5,23,0.00
2014-5-31,72.0,53.5,39.0,43.0,37.5,32.0,89,59,25,0.00,40.00,16,6,37,0.02
2014-6-1,64.0,47.5,38.0,40.0,36.8,31.0,96,71,31,0.00,40.00,7,4,19,0.02
2014-7-24,79.0,66.3,47.0,44.0,30.2,3.0,76,33,8,0.00,40.00,18,9,37,0.00
2014-7-25,79.0,56.7,36.0,32.0,24.3,20.0,66,34,11,0.00,40.00,14,5,28,0.00
2014-7-26,81.0,62.7,37.0,36.0,27.5,20.0,68,32,11,0.00,40.00,8,5,19,0.00
2014-7-27,86.0,61.6,38.0,38.0,31.1,24.0,70,38,12,0.00,40.00,9,4,20,0.00
2014-7-28,84.0,64.9,45.0,44.0,38.9,34.0,77,42,20,0.00,40.00,13,6,26,0.00
2014-7-29,69.0,61.8,51.0,56.0,49.8,40.0,94,68,35,0.00,40.00,11,6,17,0.18
2014-7-30,75.0,61.1,47.0,50.0,46.5,42.0,94,64,31,0.00,40.00,12,6,18,0.02
2014-7-31,77.0,59.5,40.0,46.0,40.1,37.0,91,55,26,0.00,40.00,17,4,23,0.00
2014-8-1,80.0,60.0,45.0,45.0,42.4,40.0,83,56,24,0.00,40.00,13,6,19,0.00
2014-8-2,82.0,60.8,42.0,46.0,42.4,38.0,89,56,24,0.00,40.00,9,4,23,0.00
2014-8-3,85.0,63.7,44.0,44.0,41.2,37.0,85,50,19,0.00,40.00,12,5,25,0.00
2014-8-4,66.0,58.5,55.0,57.0,50.2,42.0,96,75,43,0.00,40.00,9,4,18,0.12
2014-8-5,68.0,58.2,54.0,57.0,54.2,51.0,99,88,54,0.00,40.00,13,5,19,0.15
2014-8-6,65.0,56.4,52.0,56.0,53.0,49.0,99,89,68,0.00,40.00,10,4,19,0.19
2014-10-25,69.0,46.5,27.0,30.0,25.2,22.0,83,50,19,0.00,40.00,17,6,28,0.00
2014-10-26,53.0,39.9,30.0,38.0,29.1,17.0,95,67,39,0.00,40.00,18,11,35,0.01
2014-10-27,37.0,30.6,26.0,29.0,24.8,20.0,96,80,54,0.00,40.00,8,3,17,0.11
2014-10-28,47.0,29.4,16.0,22.0,19.1,13.0,90,69,29,0.00,40.00,9,2,22,0.02
2014-10-29,48.0,33.3,20.0,31.0,24.0,16.0,86,70,42,0.00,40.00,14,5,24,0.00
2014-10-30,60.0,38.6,28.0,32.0,28.2,25.0,92,70,32,0.00,40.00,7,3,12,0.00
2014-10-31,63.0,41.6,26.0,31.0,26.8,23.0,91,61,24,0.00,40.00,12,4,22,0.00
2014-11-7,54.0,44.4,28.0,33.0,28.5,24.0,83,55,37,0.00,40.00,15,8,32,0.00
2014-11-8,54.0,35.4,22.0,29.0,24.5,19.0,90,68,31,0.00,40.00,9,4,17,0.00
2014-11-9,53.0,40.7,26.0,35.0,27.6,23.0,91,62,40,0.00,40.00,23,11,51,0.03
2014-11-10,41.0,26.9,18.0,33.0,21.9,16.0,97,82,60,0.00,40.00,16,7,50,0.28
2014-11-11,19.0,10.3,-1.0,17.0,5.7,-8.0,91,81,71,0.00,40.00,12,8,19,0.01
2014-11-12,13.0,-0.5,-12.0,2.0,-8.4,-18.0,77,67,59,0.00,40.00,10,4,13,0.05
2014-11-13,8.0,-3.0,-18.0,3.0,-9.5,-25.0,83,73,65,0.00,40.00,5,1,7,0.02
2014-11-14,30.0,22.0,8.0,29.0,20.0,4.0,98,92,83,0.00,40.00,15,7,25,0.00
2014-11-15,24.0,11.4,-4.0,22.0,6.3,-11.0,90,80,72,0.00,40.00,12,6,18,0.00
2014-11-16,15.0,-0.8,-10.0,6.0,-7.0,-16.0,81,74,66,0.00,40.00,8,2,10,0.09
2014-11-17,13.0,2.5,-4.0,6.0,-2.7,-9.0,82,78,71,0.00,40.00,5,2,7,0.04
2014-11-18,17.0,6.3,0.0,10.0,1.2,-5.0,86,80,73,0.00,40.00,4,2,7,0.01
2014-11-19,30.0,14.2,6.0,23.0,9.7,2.0,89,82,73,0.00,40.00,3,1,7,0.14
2014-11-20,30.0,17.9,7.0,24.0,14.5,3.0,93,86,78,0.00,40.00,4,2,6,0.01
2014-11-21,36.0,21.5,7.0,27.0,17.2,2.0,93,84,68,0.00,40.00,13,3,17,0.01
2014-11-22,32.0,28.2,17.0,32.0,26.3,14.0,99,92,71,0.00,40.00,26,16,42,0.04
2014-11-23,27.0,22.0,18.0,22.0,17.7,14.0,95,84,58,0.00,40.00,19,9,38,0.01
2014-11-24,29.0,23.8,20.0,22.0,14.9,9.0,95,70,45,0.00,40.00,24,9,30,0.01
2014-11-25,33.0,27.7,22.0,32.0,26.8,17.0,100,96,79,0.00,40.00,24,12,32,0.01
2014-11-26,43.0,37.9,33.0,37.0,31.5,28.0,100,79,60,0.00,40.00,15,12,34,0.73
2014-11-27,46.0,41.3,37.0,28.0,26.4,24.0,70,56,46,0.00,40.00,22,13,35,0.01
2014-11-28,45.0,40.3,36.0,26.0,21.7,9.0,67,48,27,0.00,40.00,22,11,44,0.00
2014-11-29,45.0,34.9,30.0,32.0,25.6,9.0,100,76,23,0.00,40.00,27,18,57,0.01
2014-11-30,30.0,20.1,8.0,21.0,11.5,-1.0,83,69,53,0.00,40.00,19,7,35,0.01
2014-12-1,33.0,16.5,0.0,32.0,12.8,-7.0,100,85,70,0.00,40.00,24,8,36,0.00
2014-12-2,40.0,31.6,17.0,33.0,26.3,16.0,100,82,49,0.00,40.00,23,10,42,0.32
2014-12-3,32.0,23.0,16.0,32.0,21.0,14.0,99,91,83,0.00,40.00,11,4,16,0.04
2014-12-4,37.0,34.2,32.0,34.0,32.4,31.0,98,93,82,0.00,40.00,16,10,22,0.29
2014-12-5,38.0,33.0,26.0,35.0,31.5,26.0,100,94,79,0.00,40.00,10,2,14,0.13
2014-12-6,41.0,30.3,23.0,32.0,27.7,22.0,100,90,61,0.00,40.00,12,4,35,0.03
2014-12-7,43.0,34.7,24.0,28.0,23.8,17.0,88,65,46,0.00,40.00,15,7,37,0.01
2014-12-8,31.0,22.5,16.0,22.0,17.8,13.0,94,83,63,0.00,40.00,6,2,12,0.00
2014-12-9,34.0,19.8,9.0,24.0,15.2,6.0,95,83,60,0.00,40.00,5,2,12,0.00
2014-12-10,38.0,22.0,15.0,23.0,17.2,13.0,95,79,54,0.00,40.00,6,2,8,0.00
2014-12-11,31.0,20.8,14.0,22.0,17.0,11.0,96,84,69,0.00,40.00,6,3,11,0.00
2014-12-12,36.0,26.8,18.0,24.0,20.8,14.0,94,79,58,0.00,40.00,7,2,9,0.00
2014-12-13,37.0,31.0,28.0,34.0,28.3,23.0,100,90,81,0.00,40.00,12,5,17,0.05
2014-12-14,29.0,25.7,23.0,26.0,22.6,20.0,97,87,69,0.00,40.00,12,4,16,0.03
2014-12-15,27.0,19.9,7.0,21.0,16.3,4.0,96,86,73,0.00,40.00,5,2,7,0.04
2014-12-16,24.0,15.4,8.0,18.0,11.0,4.0,93,83,71,0.00,40.00,5,2,7,0.01
2014-12-17,33.0,22.1,17.0,24.0,19.6,15.0,97,90,68,0.00,40.00,6,2,11,0.14
2014-12-18,28.0,20.3,13.0,24.0,18.0,10.0,96,91,77,0.00,40.00,4,2,6,0.04
2014-12-19,30.0,27.2,21.0,28.0,24.6,20.0,98,90,76,0.00,40.00,17,10,25,0.03
2014-12-20,31.0,27.8,28.0,29.0,25.5,25.0,99,91,80,0.00,40.00,17,12,23,0.01
2014-12-21,38.0,32.3,29.0,35.0,26.7,15.0,100,82,48,0.00,40.00,20,13,50,0.32
2014-12-22,31.0,24.5,14.0,25.0,17.1,10.0,98,75,52,0.00,40.00,11,6,41,0.01
2014-12-23,21.0,11.7,3.0,12.0,6.9,-1.0,90,81,61,0.00,40.00,5,2,9,0.02
2014-12-24,28.0,19.0,8.0,26.0,15.8,5.0,97,87,73,0.00,40.00,22,10,32,0.01
2014-12-25,27.0,21.7,12.0,27.0,18.5,4.0,99,88,69,0.00,40.00,21,12,32,0.00
2014-12-26,18.0,9.8,-1.0,10.0,3.5,-6.0,86,75,58,0.00,40.00,12,7,15,0.01
2014-12-27,14.0,6.4,-5.0,11.0,2.0,-10.0,87,82,75,0.00,40.00,17,6,22,0.01
2014-12-28,20.0,13.7,5.0,16.0,10.8,2.0,90,88,83,0.00,40.00,17,8,23,0.00
2014-12-29,14.0,5.7,-4.0,9.0,1.0,-13.0,85,81,73,0.00,40.00,9,5,14,0.00
2014-12-30,6.0,-8.8,-18.0,-3.0,-16.1,-25.0,74,69,59,0.00,40.00,11,4,14,0.01
2014-12-31,4.0,-12.0,-25.0,-5.0,-19.6,-34.0,74,67,61,0.00,40.00,5,2,7,0.01
2015-1-1,9.0,-7.3,-20.0,0.0,-14.1,-27.0,78,71,65,0.00,40.00,4,2,7,0.00
2015-1-2,10.0,0.1,-12.0,6.0,-5.4,-18.0,86,77,71,0.00,40.00,6,2,10,0.00